Terminal Aerodrome Forecast
Issued by NWS

Home | Current Version | Previous Version | Text Only | Print | Product List | Glossary On
Versions: 1 2 3 4 5 6 7 8 9 10 11 12 13
615
FTAK31 PAJN 241122
TAFAYA
TAF
PAYA 241122Z 2412/2512 VRB03KT P6SM FEW100
     FM241500 09005KT P6SM OVC080
     FM241800 08008KT P6SM -RA OVC050
     FM250300 VRB04KT P6SM VCSH BKN040
      AMD LTD TO CLD VIS AND WIND=

USA.gov is the U.S. government's official web portal to all federal, state and local government web resources and services.